sensor_id;sensor_type;location;lat;lon;timestamp;pressure;altitude;pressure_sealevel;temperature;humidity
5651;BME280;40241;52.684;9.758;2023-04-29T00:00:43;100712.44;;;16.11;60.26
5651;BME280;40241;52.684;9.758;2023-04-29T00:03:08;100710.63;;;16.13;60.27
5651;BME280;40241;52.684;9.758;2023-04-29T00:05:34;100699.75;;;16.15;60.20
5651;BME280;40241;52.684;9.758;2023-04-29T00:07:59;100706.78;;;16.16;60.18
5651;BME280;40241;52.684;9.758;2023-04-29T00:10:25;100711.06;;;16.17;60.22
5651;BME280;40241;52.684;9.758;2023-04-29T00:12:50;100706.56;;;16.14;60.15
5651;BME280;40241;52.684;9.758;2023-04-29T00:15:16;100717.25;;;16.10;60.19
5651;BME280;40241;52.684;9.758;2023-04-29T00:17:41;100712.00;;;16.07;60.29
5651;BME280;40241;52.684;9.758;2023-04-29T00:20:07;100729.91;;;16.06;60.34
5651;BME280;40241;52.684;9.758;2023-04-29T00:22:33;100721.16;;;16.02;60.13
5651;BME280;40241;52.684;9.758;2023-04-29T00:24:58;100716.44;;;15.97;60.36
5651;BME280;40241;52.684;9.758;2023-04-29T00:27:24;100718.03;;;15.92;60.44
5651;BME280;40241;52.684;9.758;2023-04-29T00:29:49;100717.81;;;15.90;60.51
5651;BME280;40241;52.684;9.758;2023-04-29T00:32:14;100724.84;;;15.91;60.35
5651;BME280;40241;52.684;9.758;2023-04-29T00:34:39;100719.91;;;15.84;60.22
5651;BME280;40241;52.684;9.758;2023-04-29T00:37:05;100726.81;;;15.77;60.46
5651;BME280;40241;52.684;9.758;2023-04-29T00:39:30;100726.47;;;15.68;60.59
5651;BME280;40241;52.684;9.758;2023-04-29T00:41:56;100738.81;;;15.67;60.75
5651;BME280;40241;52.684;9.758;2023-04-29T00:44:21;100732.25;;;15.70;60.66
5651;BME280;40241;52.684;9.758;2023-04-29T00:46:46;100730.44;;;15.72;60.58
5651;BME280;40241;52.684;9.758;2023-04-29T00:49:12;100732.69;;;15.74;60.51
5651;BME280;40241;52.684;9.758;2023-04-29T00:51:39;100739.22;;;15.77;60.49
5651;BME280;40241;52.684;9.758;2023-04-29T00:54:06;100743.25;;;15.75;60.44
5651;BME280;40241;52.684;9.758;2023-04-29T00:56:34;100745.78;;;15.73;60.59
5651;BME280;40241;52.684;9.758;2023-04-29T00:59:00;100747.09;;;15.72;60.56
5651;BME280;40241;52.684;9.758;2023-04-29T01:01:27;100757.66;;;15.74;60.48
5651;BME280;40241;52.684;9.758;2023-04-29T01:03:52;100754.13;;;15.73;60.41
5651;BME280;40241;52.684;9.758;2023-04-29T01:06:44;100758.47;;;15.69;61.06
5651;BME280;40241;52.684;9.758;2023-04-29T01:09:32;100764.31;;;15.65;61.04
5651;BME280;40241;52.684;9.758;2023-04-29T01:12:31;100767.16;;;15.60;61.17
5651;BME280;40241;52.684;9.758;2023-04-29T01:17:35;100773.53;;;15.55;60.51
5651;BME280;40241;52.684;9.758;2023-04-29T01:20:03;100781.16;;;15.49;60.39
5651;BME280;40241;52.684;9.758;2023-04-29T01:22:28;100776.94;;;15.42;60.47
5651;BME280;40241;52.684;9.758;2023-04-29T01:24:54;100781.25;;;15.38;60.52
5651;BME280;40241;52.684;9.758;2023-04-29T01:35:50;100792.03;;;15.23;60.70
5651;BME280;40241;52.684;9.758;2023-04-29T01:38:48;100803.19;;;15.17;61.68
5651;BME280;40241;52.684;9.758;2023-04-29T01:41:21;100801.28;;;15.07;60.47
5651;BME280;40241;52.684;9.758;2023-04-29T01:43:50;100812.19;;;14.99;60.63
5651;BME280;40241;52.684;9.758;2023-04-29T01:46:16;100808.19;;;14.94;60.71
5651;BME280;40241;52.684;9.758;2023-04-29T01:48:45;100819.03;;;14.92;60.80
5651;BME280;40241;52.684;9.758;2023-04-29T01:51:11;100828.63;;;14.91;60.90
5651;BME280;40241;52.684;9.758;2023-04-29T01:53:36;100825.34;;;14.93;60.62
5651;BME280;40241;52.684;9.758;2023-04-29T01:56:02;100831.41;;;14.91;60.67
5651;BME280;40241;52.684;9.758;2023-04-29T01:58:27;100834.91;;;14.92;60.69
5651;BME280;40241;52.684;9.758;2023-04-29T02:00:53;100836.19;;;14.91;60.63
5651;BME280;40241;52.684;9.758;2023-04-29T02:03:19;100840.28;;;14.84;60.73
5651;BME280;40241;52.684;9.758;2023-04-29T02:05:44;100845.59;;;14.82;60.94
5651;BME280;40241;52.684;9.758;2023-04-29T02:08:10;100847.91;;;14.78;60.82
5651;BME280;40241;52.684;9.758;2023-04-29T02:10:35;100849.94;;;14.72;60.82
5651;BME280;40241;52.684;9.758;2023-04-29T02:13:00;100853.28;;;14.65;60.78
5651;BME280;40241;52.684;9.758;2023-04-29T02:15:26;100860.38;;;14.61;60.92
5651;BME280;40241;52.684;9.758;2023-04-29T02:17:52;100864.91;;;14.58;60.96
5651;BME280;40241;52.684;9.758;2023-04-29T02:20:19;100867.69;;;14.58;60.94
5651;BME280;40241;52.684;9.758;2023-04-29T02:22:44;100873.47;;;14.60;60.69
5651;BME280;40241;52.684;9.758;2023-04-29T02:25:10;100873.69;;;14.62;60.68
5651;BME280;40241;52.684;9.758;2023-04-29T02:27:35;100873.47;;;14.60;60.75
5651;BME280;40241;52.684;9.758;2023-04-29T02:30:01;100881.75;;;14.60;60.83
5651;BME280;40241;52.684;9.758;2023-04-29T02:32:29;100875.53;;;14.54;60.87
5651;BME280;40241;52.684;9.758;2023-04-29T02:34:54;100886.34;;;14.52;60.78
5651;BME280;40241;52.684;9.758;2023-04-29T02:37:19;100899.97;;;14.50;60.85
5651;BME280;40241;52.684;9.758;2023-04-29T02:39:45;100885.38;;;14.44;60.85
5651;BME280;40241;52.684;9.758;2023-04-29T02:42:11;100894.75;;;14.41;60.82
5651;BME280;40241;52.684;9.758;2023-04-29T02:44:36;100897.25;;;14.39;60.96
5651;BME280;40241;52.684;9.758;2023-04-29T02:47:02;100906.34;;;14.34;61.08
5651;BME280;40241;52.684;9.758;2023-04-29T02:49:27;100916.13;;;14.35;61.32
5651;BME280;40241;52.684;9.758;2023-04-29T02:51:52;100913.41;;;14.30;61.25
5651;BME280;40241;52.684;9.758;2023-04-29T02:54:18;100911.41;;;14.30;61.12
5651;BME280;40241;52.684;9.758;2023-04-29T02:56:43;100920.19;;;14.34;61.08
5651;BME280;40241;52.684;9.758;2023-04-29T02:59:09;100935.03;;;14.31;61.07
5651;BME280;40241;52.684;9.758;2023-04-29T03:01:35;100919.94;;;14.32;61.23
5651;BME280;40241;52.684;9.758;2023-04-29T03:04:00;100927.72;;;14.34;61.26
5651;BME280;40241;52.684;9.758;2023-04-29T03:06:26;100924.72;;;14.32;61.12
5651;BME280;40241;52.684;9.758;2023-04-29T03:08:52;100927.75;;;14.28;61.13
5651;BME280;40241;52.684;9.758;2023-04-29T03:11:17;100927.50;;;14.26;61.27
5651;BME280;40241;52.684;9.758;2023-04-29T03:13:42;100942.34;;;14.23;61.28
5651;BME280;40241;52.684;9.758;2023-04-29T03:16:08;100926.28;;;14.16;61.32
5651;BME280;40241;52.684;9.758;2023-04-29T03:18:34;100930.31;;;14.15;61.40
5651;BME280;40241;52.684;9.758;2023-04-29T03:20:59;100929.81;;;14.16;61.30
5651;BME280;40241;52.684;9.758;2023-04-29T03:23:24;100938.34;;;14.18;61.38
5651;BME280;40241;52.684;9.758;2023-04-29T03:25:50;100936.09;;;14.17;61.18
5651;BME280;40241;52.684;9.758;2023-04-29T03:28:17;100938.13;;;14.11;61.26
5651;BME280;40241;52.684;9.758;2023-04-29T03:30:42;100937.63;;;14.07;61.33
5651;BME280;40241;52.684;9.758;2023-04-29T03:33:07;100947.72;;;13.99;61.25
5651;BME280;40241;52.684;9.758;2023-04-29T03:35:33;100946.22;;;13.98;61.40
5651;BME280;40241;52.684;9.758;2023-04-29T03:37:58;100948.75;;;13.96;61.30
5651;BME280;40241;52.684;9.758;2023-04-29T03:40:23;100950.78;;;13.95;61.49
5651;BME280;40241;52.684;9.758;2023-04-29T03:42:49;100956.78;;;13.94;61.52
5651;BME280;40241;52.684;9.758;2023-04-29T03:45:14;100959.84;;;13.90;61.45
5651;BME280;40241;52.684;9.758;2023-04-29T03:47:40;100963.84;;;13.89;61.50
5651;BME280;40241;52.684;9.758;2023-04-29T03:50:06;100962.34;;;13.83;61.49
5651;BME280;40241;52.684;9.758;2023-04-29T03:52:32;100971.19;;;13.76;61.64
5651;BME280;40241;52.684;9.758;2023-04-29T03:55:01;100967.19;;;13.66;61.67
5651;BME280;40241;52.684;9.758;2023-04-29T03:57:26;100966.97;;;13.58;61.72
5651;BME280;40241;52.684;9.758;2023-04-29T03:59:51;100971.22;;;13.53;62.03
5651;BME280;40241;52.684;9.758;2023-04-29T04:02:17;100974.47;;;13.52;61.99
5651;BME280;40241;52.684;9.758;2023-04-29T04:04:42;100978.50;;;13.45;62.11
5651;BME280;40241;52.684;9.758;2023-04-29T04:07:07;100991.09;;;13.46;61.87
5651;BME280;40241;52.684;9.758;2023-04-29T04:09:33;100986.81;;;13.45;62.05
5651;BME280;40241;52.684;9.758;2023-04-29T04:11:58;100995.84;;;13.46;62.04
5651;BME280;40241;52.684;9.758;2023-04-29T04:14:25;100997.59;;;13.43;61.91
5651;BME280;40241;52.684;9.758;2023-04-29T04:16:50;101000.63;;;13.40;61.95
5651;BME280;40241;52.684;9.758;2023-04-29T04:19:15;101005.91;;;13.43;61.90
5651;BME280;40241;52.684;9.758;2023-04-29T04:21:41;101014.72;;;13.42;62.03
5651;BME280;40241;52.684;9.758;2023-04-29T04:24:07;101022.75;;;13.40;62.12
5651;BME280;40241;52.684;9.758;2023-04-29T04:26:32;101019.47;;;13.41;61.92
5651;BME280;40241;52.684;9.758;2023-04-29T04:28:58;101034.06;;;13.36;62.00
5651;BME280;40241;52.684;9.758;2023-04-29T04:31:23;101035.31;;;13.35;61.88
5651;BME280;40241;52.684;9.758;2023-04-29T04:33:48;101029.03;;;13.29;62.24
5651;BME280;40241;52.684;9.758;2023-04-29T04:36:13;101035.78;;;13.28;62.31
5651;BME280;40241;52.684;9.758;2023-04-29T04:38:39;101037.56;;;13.26;62.13
5651;BME280;40241;52.684;9.758;2023-04-29T04:41:05;101039.31;;;13.23;62.63
5651;BME280;40241;52.684;9.758;2023-04-29T04:43:32;101046.59;;;13.21;62.28
5651;BME280;40241;52.684;9.758;2023-04-29T04:45:57;101045.84;;;13.20;62.40
5651;BME280;40241;52.684;9.758;2023-04-29T04:48:22;101056.16;;;13.25;62.22
5651;BME280;40241;52.684;9.758;2023-04-29T04:50:48;101055.66;;;13.27;62.32
5651;BME280;40241;52.684;9.758;2023-04-29T04:53:13;101058.41;;;13.27;62.42
5651;BME280;40241;52.684;9.758;2023-04-29T04:55:39;101059.16;;;13.27;62.28
5651;BME280;40241;52.684;9.758;2023-04-29T04:58:04;101055.66;;;13.21;62.16
5651;BME280;40241;52.684;9.758;2023-04-29T05:00:29;101065.66;;;13.13;62.17
5651;BME280;40241;52.684;9.758;2023-04-29T05:02:55;101076.25;;;13.15;62.40
5651;BME280;40241;52.684;9.758;2023-04-29T05:05:20;101075.00;;;13.21;62.24
5651;BME280;40241;52.684;9.758;2023-04-29T05:07:46;101074.72;;;13.30;62.30
5651;BME280;40241;52.684;9.758;2023-04-29T05:10:11;101084.06;;;13.38;62.24
5651;BME280;40241;52.684;9.758;2023-04-29T05:12:36;101084.06;;;13.44;62.24
5651;BME280;40241;52.684;9.758;2023-04-29T05:15:02;101078.03;;;13.51;62.09
5651;BME280;40241;52.684;9.758;2023-04-29T05:17:28;101084.56;;;13.53;62.03
5651;BME280;40241;52.684;9.758;2023-04-29T05:19:54;101081.78;;;13.59;62.21
5651;BME280;40241;52.684;9.758;2023-04-29T05:22:19;101092.09;;;13.64;61.99
5651;BME280;40241;52.684;9.758;2023-04-29T05:24:44;101093.88;;;13.67;61.90
5651;BME280;40241;52.684;9.758;2023-04-29T05:27:12;101086.09;;;13.71;61.86
5651;BME280;40241;52.684;9.758;2023-04-29T05:29:37;101094.13;;;13.75;61.74
5651;BME280;40241;52.684;9.758;2023-04-29T05:32:03;101105.94;;;13.75;61.78
5651;BME280;40241;52.684;9.758;2023-04-29T05:34:28;101101.66;;;13.74;61.70
5651;BME280;40241;52.684;9.758;2023-04-29T05:36:54;101109.69;;;13.72;61.62
5651;BME280;40241;52.684;9.758;2023-04-29T05:39:19;101120.00;;;13.72;61.92
5651;BME280;40241;52.684;9.758;2023-04-29T05:41:45;101126.81;;;13.71;61.92
5651;BME280;40241;52.684;9.758;2023-04-29T05:44:10;101128.56;;;13.68;61.89
5651;BME280;40241;52.684;9.758;2023-04-29T05:46:36;101132.84;;;13.69;61.93
5651;BME280;40241;52.684;9.758;2023-04-29T05:49:01;101139.09;;;13.70;61.88
5651;BME280;40241;52.684;9.758;2023-04-29T05:51:27;101140.88;;;13.67;62.12
5651;BME280;40241;52.684;9.758;2023-04-29T05:53:53;101148.16;;;13.70;62.01
5651;BME280;40241;52.684;9.758;2023-04-29T05:56:19;101151.94;;;13.67;61.85
5651;BME280;40241;52.684;9.758;2023-04-29T05:58:44;101151.19;;;13.67;61.84
5651;BME280;40241;52.684;9.758;2023-04-29T06:01:10;101154.44;;;13.65;61.75
5651;BME280;40241;52.684;9.758;2023-04-29T06:03:35;101161.50;;;13.61;62.17
5651;BME280;40241;52.684;9.758;2023-04-29T06:06:01;101160.22;;;13.62;62.02
5651;BME280;40241;52.684;9.758;2023-04-29T06:08:26;101170.28;;;13.65;62.20
5651;BME280;40241;52.684;9.758;2023-04-29T06:10:52;101164.00;;;13.70;62.01
5651;BME280;40241;52.684;9.758;2023-04-29T06:13:17;101165.00;;;13.67;62.13
5651;BME280;40241;52.684;9.758;2023-04-29T06:15:43;101176.06;;;13.72;62.29
5651;BME280;40241;52.684;9.758;2023-04-29T06:18:08;101181.38;;;13.76;62.07
5651;BME280;40241;52.684;9.758;2023-04-29T06:20:34;101179.84;;;13.80;62.02
5651;BME280;40241;52.684;9.758;2023-04-29T06:22:59;101186.13;;;13.81;61.97
5651;BME280;40241;52.684;9.758;2023-04-29T06:25:25;101192.16;;;13.85;61.96
5651;BME280;40241;52.684;9.758;2023-04-29T06:27:51;101194.69;;;13.88;61.93
5651;BME280;40241;52.684;9.758;2023-04-29T06:30:16;101193.66;;;13.91;62.02
5651;BME280;40241;52.684;9.758;2023-04-29T06:32:41;101200.47;;;13.96;61.67
5651;BME280;40241;52.684;9.758;2023-04-29T06:35:07;101204.50;;;13.95;61.48
5651;BME280;40241;52.684;9.758;2023-04-29T06:37:33;101230.88;;;13.85;61.63
5651;BME280;40241;52.684;9.758;2023-04-29T06:39:58;101217.06;;;13.85;61.85
5651;BME280;40241;52.684;9.758;2023-04-29T06:42:23;101216.31;;;13.90;62.10
5651;BME280;40241;52.684;9.758;2023-04-29T06:44:49;101224.38;;;13.99;62.09
5651;BME280;40241;52.684;9.758;2023-04-29T06:47:14;101225.63;;;14.09;61.65
5651;BME280;40241;52.684;9.758;2023-04-29T06:49:39;101235.44;;;14.15;61.90
5651;BME280;40241;52.684;9.758;2023-04-29T06:52:07;101241.75;;;14.21;61.77
5651;BME280;40241;52.684;9.758;2023-04-29T06:54:33;101241.75;;;14.27;61.86
5651;BME280;40241;52.684;9.758;2023-04-29T06:56:58;101242.25;;;14.42;61.83
5651;BME280;40241;52.684;9.758;2023-04-29T06:59:23;101239.22;;;14.62;61.49
5651;BME280;40241;52.684;9.758;2023-04-29T07:01:48;101247.75;;;14.81;61.10
5651;BME280;40241;52.684;9.758;2023-04-29T07:04:15;101246.97;;;14.91;60.86
5651;BME280;40241;52.684;9.758;2023-04-29T07:06:41;101257.78;;;14.95;60.81
5651;BME280;40241;52.684;9.758;2023-04-29T07:09:11;101246.94;;;14.97;60.78
5651;BME280;40241;52.684;9.758;2023-04-29T07:11:38;101262.59;;;14.89;60.22
5651;BME280;40241;52.684;9.758;2023-04-29T07:14:03;101265.66;;;14.58;60.53
5651;BME280;40241;52.684;9.758;2023-04-29T07:16:28;101270.47;;;14.52;60.88
5651;BME280;40241;52.684;9.758;2023-04-29T07:18:54;101276.50;;;14.56;60.83
5651;BME280;40241;52.684;9.758;2023-04-29T07:21:19;101279.00;;;14.48;60.87
5651;BME280;40241;52.684;9.758;2023-04-29T07:23:45;101281.53;;;14.46;61.20
5651;BME280;40241;52.684;9.758;2023-04-29T07:26:11;101287.31;;;14.48;61.04
5651;BME280;40241;52.684;9.758;2023-04-29T07:28:38;101289.56;;;14.55;61.17
5651;BME280;40241;52.684;9.758;2023-04-29T07:31:03;101290.06;;;14.59;60.82
5651;BME280;40241;52.684;9.758;2023-04-29T07:33:29;101295.09;;;14.66;60.83
5651;BME280;40241;52.684;9.758;2023-04-29T07:35:55;101297.63;;;14.75;60.59
5651;BME280;40241;52.684;9.758;2023-04-29T07:38:20;101301.63;;;14.96;60.91
5651;BME280;40241;52.684;9.758;2023-04-29T07:40:46;101304.09;;;15.17;60.50
5651;BME280;40241;52.684;9.758;2023-04-29T07:43:11;101312.59;;;15.41;60.42
5651;BME280;40241;52.684;9.758;2023-04-29T07:45:37;101315.50;;;15.76;60.29
5651;BME280;40241;52.684;9.758;2023-04-29T07:48:04;101318.16;;;15.98;59.73
5651;BME280;40241;52.684;9.758;2023-04-29T07:50:29;101324.91;;;16.08;59.49
5651;BME280;40241;52.684;9.758;2023-04-29T07:52:55;101326.59;;;16.22;59.29
5651;BME280;40241;52.684;9.758;2023-04-29T07:55:22;101331.31;;;16.27;58.93
5651;BME280;40241;52.684;9.758;2023-04-29T07:57:47;101328.44;;;16.09;58.37
5651;BME280;40241;52.684;9.758;2023-04-29T08:00:13;101333.75;;;16.01;58.51
5651;BME280;40241;52.684;9.758;2023-04-29T08:02:38;101332.31;;;15.89;58.42
5651;BME280;40241;52.684;9.758;2023-04-29T08:05:03;101334.34;;;15.89;58.51
5651;BME280;40241;52.684;9.758;2023-04-29T08:07:29;101336.78;;;16.03;58.40
5651;BME280;40241;52.684;9.758;2023-04-29T08:09:54;101350.13;;;16.10;58.57
5651;BME280;40241;52.684;9.758;2023-04-29T08:12:20;101352.81;;;16.21;58.35
5651;BME280;40241;52.684;9.758;2023-04-29T08:14:45;101349.97;;;16.38;58.33
5651;BME280;40241;52.684;9.758;2023-04-29T08:17:10;101356.91;;;16.56;58.22
5651;BME280;40241;52.684;9.758;2023-04-29T08:19:35;101361.81;;;16.74;57.95
5651;BME280;40241;52.684;9.758;2023-04-29T08:22:01;101360.94;;;16.90;57.73
5651;BME280;40241;52.684;9.758;2023-04-29T08:24:28;101371.88;;;17.06;57.41
5651;BME280;40241;52.684;9.758;2023-04-29T08:26:54;101370.06;;;17.14;57.13
5651;BME280;40241;52.684;9.758;2023-04-29T08:29:19;101375.13;;;17.10;56.70
5651;BME280;40241;52.684;9.758;2023-04-29T08:31:45;101384.44;;;17.18;56.92
5651;BME280;40241;52.684;9.758;2023-04-29T08:34:10;101373.31;;;17.18;56.63
5651;BME280;40241;52.684;9.758;2023-04-29T08:36:36;101377.22;;;17.29;56.54
5651;BME280;40241;52.684;9.758;2023-04-29T08:39:03;101387.25;;;17.37;56.30
5651;BME280;40241;52.684;9.758;2023-04-29T08:41:30;101382.88;;;17.23;55.73
5651;BME280;40241;52.684;9.758;2023-04-29T08:43:58;101394.31;;;17.14;55.92
5651;BME280;40241;52.684;9.758;2023-04-29T08:46:25;101387.25;;;17.13;55.78
5651;BME280;40241;52.684;9.758;2023-04-29T08:48:51;101390.25;;;17.15;56.18
5651;BME280;40241;52.684;9.758;2023-04-29T08:51:17;101391.25;;;17.42;55.99
5651;BME280;40241;52.684;9.758;2023-04-29T08:53:42;101392.78;;;17.43;55.20
5651;BME280;40241;52.684;9.758;2023-04-29T08:56:12;101403.91;;;17.43;55.07
5651;BME280;40241;52.684;9.758;2023-04-29T08:58:40;101400.00;;;17.27;54.90
5651;BME280;40241;52.684;9.758;2023-04-29T09:01:08;101400.00;;;17.03;55.30
5651;BME280;40241;52.684;9.758;2023-04-29T09:03:42;101400.78;;;16.98;54.59
5651;BME280;40241;52.684;9.758;2023-04-29T09:06:09;101404.69;;;16.84;55.18
5651;BME280;40241;52.684;9.758;2023-04-29T09:08:36;101407.47;;;16.84;55.37
5651;BME280;40241;52.684;9.758;2023-04-29T09:11:02;101408.84;;;17.01;55.31
5651;BME280;40241;52.684;9.758;2023-04-29T09:13:30;101409.91;;;17.22;54.92
5651;BME280;40241;52.684;9.758;2023-04-29T09:15:56;101409.38;;;17.24;54.72
5651;BME280;40241;52.684;9.758;2023-04-29T09:21:27;101417.63;;;17.83;54.84
5651;BME280;40241;52.684;9.758;2023-04-29T09:23:54;101414.84;;;18.02;54.22
5651;BME280;40241;52.684;9.758;2023-04-29T09:26:20;101418.84;;;18.07;54.32
5651;BME280;40241;52.684;9.758;2023-04-29T09:28:47;101427.00;;;18.23;53.97
5651;BME280;40241;52.684;9.758;2023-04-29T09:31:26;101430.38;;;18.35;53.27
5651;BME280;40241;52.684;9.758;2023-04-29T09:33:56;101427.47;;;18.46;52.52
5651;BME280;40241;52.684;9.758;2023-04-29T09:36:40;101430.31;;;18.59;49.52
5651;BME280;40241;52.684;9.758;2023-04-29T09:41:37;101435.22;;;18.53;52.12
5651;BME280;40241;52.684;9.758;2023-04-29T09:44:06;101427.63;;;18.53;51.28
5651;BME280;40241;52.684;9.758;2023-04-29T09:46:32;101435.28;;;18.66;51.51
5651;BME280;40241;52.684;9.758;2023-04-29T09:48:59;101430.09;;;18.57;50.78
5651;BME280;40241;52.684;9.758;2023-04-29T09:51:25;101431.59;;;18.58;51.28
5651;BME280;40241;52.684;9.758;2023-04-29T09:53:50;101427.53;;;18.59;50.54
5651;BME280;40241;52.684;9.758;2023-04-29T09:56:15;101433.72;;;18.52;50.94
5651;BME280;40241;52.684;9.758;2023-04-29T09:58:40;101438.66;;;18.78;51.01
5651;BME280;40241;52.684;9.758;2023-04-29T10:01:06;101443.25;;;19.07;50.67
5651;BME280;40241;52.684;9.758;2023-04-29T10:03:33;101449.50;;;19.13;50.11
5651;BME280;40241;52.684;9.758;2023-04-29T10:06:00;101452.59;;;19.09;49.68
5651;BME280;40241;52.684;9.758;2023-04-29T10:08:28;101454.25;;;18.86;49.54
5651;BME280;40241;52.684;9.758;2023-04-29T10:10:58;101455.81;;;18.50;49.15
5651;BME280;40241;52.684;9.758;2023-04-29T10:13:25;101455.50;;;18.53;49.95
5651;BME280;40241;52.684;9.758;2023-04-29T10:18:48;101446.25;;;18.45;49.11
5651;BME280;40241;52.684;9.758;2023-04-29T10:21:17;101447.03;;;18.40;48.99
5651;BME280;40241;52.684;9.758;2023-04-29T10:23:46;101447.72;;;18.46;49.53
5651;BME280;40241;52.684;9.758;2023-04-29T10:26:13;101455.72;;;18.55;49.56
5651;BME280;40241;52.684;9.758;2023-04-29T10:28:39;101450.84;;;18.75;49.64
5651;BME280;40241;52.684;9.758;2023-04-29T16:17:35;101662.19;;;15.15;52.45
5651;BME280;40241;52.684;9.758;2023-04-29T16:20:01;101659.53;;;15.65;51.53
5651;BME280;40241;52.684;9.758;2023-04-29T16:22:27;101653.50;;;16.05;50.80
5651;BME280;40241;52.684;9.758;2023-04-29T16:24:52;101667.06;;;16.36;49.94
5651;BME280;40241;52.684;9.758;2023-04-29T16:27:18;101654.16;;;16.61;49.41
5651;BME280;40241;52.684;9.758;2023-04-29T16:29:43;101661.41;;;16.81;48.78
5651;BME280;40241;52.684;9.758;2023-04-29T16:32:09;101659.59;;;16.94;48.52
5651;BME280;40241;52.684;9.758;2023-04-29T16:34:35;101668.38;;;17.09;48.12
5651;BME280;40241;52.684;9.758;2023-04-29T16:37:01;101683.72;;;17.21;47.94
5651;BME280;40241;52.684;9.758;2023-04-29T16:39:27;101682.19;;;17.32;47.38
5651;BME280;40241;52.684;9.758;2023-04-29T16:41:52;101667.97;;;17.35;47.23
5651;BME280;40241;52.684;9.758;2023-04-29T16:44:18;101677.34;;;17.38;47.00
5651;BME280;40241;52.684;9.758;2023-04-29T16:46:43;101680.06;;;17.43;47.25
5651;BME280;40241;52.684;9.758;2023-04-29T16:49:09;101689.44;;;17.51;47.05
5651;BME280;40241;52.684;9.758;2023-04-29T16:51:34;101683.56;;;17.55;46.68
5651;BME280;40241;52.684;9.758;2023-04-29T16:53:59;101685.34;;;17.52;46.70
5651;BME280;40241;52.684;9.758;2023-04-29T16:56:25;101683.56;;;17.55;46.51
5651;BME280;40241;52.684;9.758;2023-04-29T16:58:50;101686.13;;;17.53;46.32
5651;BME280;40241;52.684;9.758;2023-04-29T17:01:17;101684.84;;;17.54;46.27
5651;BME280;40241;52.684;9.758;2023-04-29T17:03:44;101684.34;;;17.55;46.14
5651;BME280;40241;52.684;9.758;2023-04-29T17:06:11;101728.34;;;17.57;46.14
5651;BME280;40241;52.684;9.758;2023-04-29T17:08:37;101699.53;;;17.43;45.87
5651;BME280;40241;52.684;9.758;2023-04-29T17:11:03;101690.00;;;17.33;45.54
5651;BME280;40241;52.684;9.758;2023-04-29T17:13:29;101718.09;;;17.24;45.70
5651;BME280;40241;52.684;9.758;2023-04-29T17:15:54;101705.50;;;17.17;45.36
5651;BME280;40241;52.684;9.758;2023-04-29T17:18:19;101697.19;;;17.06;45.80
5651;BME280;40241;52.684;9.758;2023-04-29T17:20:45;101715.38;;;17.13;45.83
5651;BME280;40241;52.684;9.758;2023-04-29T17:23:10;101714.38;;;17.10;45.82
5651;BME280;40241;52.684;9.758;2023-04-29T17:25:36;101708.84;;;16.99;45.58
5651;BME280;40241;52.684;9.758;2023-04-29T17:28:02;101727.81;;;16.95;45.83
5651;BME280;40241;52.684;9.758;2023-04-29T17:30:28;101705.63;;;16.90;45.65
5651;BME280;40241;52.684;9.758;2023-04-29T17:32:53;101716.97;;;16.86;45.93
5651;BME280;40241;52.684;9.758;2023-04-29T17:35:18;101730.38;;;16.82;45.84
5651;BME280;40241;52.684;9.758;2023-04-29T17:37:44;101726.38;;;16.72;45.87
5651;BME280;40241;52.684;9.758;2023-04-29T17:40:09;101739.28;;;16.59;46.14
5651;BME280;40241;52.684;9.758;2023-04-29T17:42:35;101729.72;;;16.60;46.32
5651;BME280;40241;52.684;9.758;2023-04-29T17:45:00;101740.31;;;16.50;46.21
5651;BME280;40241;52.684;9.758;2023-04-29T17:47:26;101734.25;;;16.52;46.36
5651;BME280;40241;52.684;9.758;2023-04-29T17:49:51;101733.50;;;16.51;46.54
5651;BME280;40241;52.684;9.758;2023-04-29T17:52:17;101733.19;;;16.49;46.53
5651;BME280;40241;52.684;9.758;2023-04-29T17:54:45;101738.31;;;16.51;46.60
5651;BME280;40241;52.684;9.758;2023-04-29T17:57:11;101740.81;;;16.48;46.68
5651;BME280;40241;52.684;9.758;2023-04-29T17:59:36;101741.56;;;16.43;46.73
5651;BME280;40241;52.684;9.758;2023-04-29T18:02:01;101742.31;;;16.38;46.73
5651;BME280;40241;52.684;9.758;2023-04-29T18:04:27;101749.16;;;16.26;47.19
5651;BME280;40241;52.684;9.758;2023-04-29T18:06:52;101749.38;;;16.23;47.21
5651;BME280;40241;52.684;9.758;2023-04-29T18:09:17;101760.50;;;16.17;47.32
5651;BME280;40241;52.684;9.758;2023-04-29T18:11:43;101759.22;;;16.13;47.44
5651;BME280;40241;52.684;9.758;2023-04-29T18:14:09;101764.78;;;16.07;47.56
5651;BME280;40241;52.684;9.758;2023-04-29T18:16:35;101770.09;;;16.05;47.44
5651;BME280;40241;52.684;9.758;2023-04-29T18:19:00;101774.09;;;15.93;47.72
5651;BME280;40241;52.684;9.758;2023-04-29T18:21:26;101781.41;;;15.85;47.75
5651;BME280;40241;52.684;9.758;2023-04-29T18:23:55;101790.72;;;15.77;47.75
5651;BME280;40241;52.684;9.758;2023-04-29T18:26:21;101796.00;;;15.63;47.94
5651;BME280;40241;52.684;9.758;2023-04-29T18:28:47;101782.31;;;15.49;48.20
5651;BME280;40241;52.684;9.758;2023-04-29T18:31:14;101798.13;;;15.37;48.43
5651;BME280;40241;52.684;9.758;2023-04-29T18:33:40;101792.31;;;15.35;48.51
5651;BME280;40241;52.684;9.758;2023-04-29T18:36:05;101784.72;;;15.30;48.63
5651;BME280;40241;52.684;9.758;2023-04-29T18:38:30;101790.75;;;15.23;48.54
5651;BME280;40241;52.684;9.758;2023-04-29T18:40:56;101788.22;;;15.20;48.78
5651;BME280;40241;52.684;9.758;2023-04-29T18:43:21;101796.75;;;15.16;49.03
5651;BME280;40241;52.684;9.758;2023-04-29T18:45:55;101793.69;;;15.09;48.96
5651;BME280;40241;52.684;9.758;2023-04-29T18:48:21;101800.94;;;15.00;48.94
5651;BME280;40241;52.684;9.758;2023-04-29T18:50:49;101798.16;;;14.95;49.16
5651;BME280;40241;52.684;9.758;2023-04-29T18:53:15;101812.19;;;14.86;49.24
5651;BME280;40241;52.684;9.758;2023-04-29T18:55:40;101816.69;;;14.83;49.12
5651;BME280;40241;52.684;9.758;2023-04-29T18:58:05;101816.69;;;14.78;49.17
5651;BME280;40241;52.684;9.758;2023-04-29T19:00:31;101816.63;;;14.72;49.38